DL9001 KDTW-EHAM
Flight info
| Callsign | DL9001 |
|---|---|
| Flight time | N/A |
| Altitude | 37000 |
| Route | HHOWE4 LNCON DCT JHW DCT SYR DCT SLK DCT PBERG DCT CEFOU N579A TUDEP/M083F390 DCT 52N050W 53N040W 54N030W 55N020W DCT RESNO DCT NETKI/N0476F390 DCT REVNU DCT BOFUM Q37 MALUD UL975 WAL M16 DOLAS L603 LAMSO |
| Aircraft | B77L/H-SDE1E2E3FGHIJ2J3J4J5M1RWXY/LB1D1 |
Departure
| Time | N/A |
|---|---|
| Airport | Detroit Metropolitan Wayne County Airport (KDTW) |
Arrival
| Time | 2026-05-06 20:23 |
|---|---|
| Airport | Amsterdam Airport Schiphol (EHAM) |
| Time | Latitude | Longitude | Altitude | Speed | Heading |
|---|---|---|---|---|---|
| 2026-05-06 20:17 | 52.12633 | 4.89519 | 3825 ft | 205 kts | 194° |
| 2026-05-06 20:17 | 52.11485 | 4.88428 | 3637 ft | 203 kts | 228° |
| 2026-05-06 20:17 | 52.10865 | 4.86396 | 3498 ft | 204 kts | 256° |
| 2026-05-06 20:17 | 52.10792 | 4.84069 | 3332 ft | 207 kts | 270° |
| 2026-05-06 20:18 | 52.10842 | 4.82563 | 3192 ft | 196 kts | 272° |
| 2026-05-06 20:18 | 52.11196 | 4.80515 | 3039 ft | 189 kts | 301° |
| 2026-05-06 20:18 | 52.12025 | 4.78857 | 2922 ft | 189 kts | 310° |
| 2026-05-06 20:18 | 52.12956 | 4.77351 | 2731 ft | 189 kts | 323° |
| 2026-05-06 20:19 | 52.14200 | 4.76744 | 2550 ft | 189 kts | 356° |
| 2026-05-06 20:19 | 52.15506 | 4.76646 | 2400 ft | 191 kts | 356° |
| 2026-05-06 20:19 | 52.16829 | 4.76625 | 2216 ft | 188 kts | 1° |
| 2026-05-06 20:19 | 52.18130 | 4.76720 | 2091 ft | 187 kts | 2° |
| 2026-05-06 20:20 | 52.19445 | 4.76841 | 1880 ft | 192 kts | 2° |
| 2026-05-06 20:20 | 52.20772 | 4.76965 | 1634 ft | 190 kts | 2° |
| 2026-05-06 20:20 | 52.22027 | 4.77082 | 1382 ft | 169 kts | 2° |
| 2026-05-06 20:20 | 52.23151 | 4.77185 | 1159 ft | 155 kts | 2° |
| 2026-05-06 20:21 | 52.24209 | 4.77283 | 966 ft | 152 kts | 2° |
| 2026-05-06 20:21 | 52.25246 | 4.77379 | 773 ft | 151 kts | 2° |
| 2026-05-06 20:21 | 52.26289 | 4.77475 | 574 ft | 149 kts | 2° |
| 2026-05-06 20:21 | 52.27325 | 4.77572 | 373 ft | 149 kts | 2° |
| 2026-05-06 20:22 | 52.28355 | 4.77670 | 176 ft | 148 kts | 3° |
| 2026-05-06 20:22 | 52.29379 | 4.77775 | 23 ft | 145 kts | 2° |
| 2026-05-06 20:22 | 52.30293 | 4.77852 | 5 ft | 100 kts | 4° |
| 2026-05-06 20:22 | 52.30784 | 4.77890 | 1 ft | 50 kts | 357° |
| 2026-05-06 20:23 | 52.30972 | 4.77792 | 2 ft | 3 kts | 334° |
| 2026-05-06 20:23 | 52.30975 | 4.77790 | 2 ft | 0 kts | 334° |
| 2026-05-06 20:23 | 52.30975 | 4.77789 | 2 ft | 0 kts | 334° |
| 2026-05-06 20:23 | 52.30980 | 4.77785 | 2 ft | 1 kts | 334° |
| 2026-05-06 20:24 | 52.30989 | 4.77778 | 3 ft | 2 kts | 334° |
| 2026-05-06 20:24 | 52.31003 | 4.77767 | 3 ft | 3 kts | 334° |
| 2026-05-06 20:24 | 52.31023 | 4.77751 | 3 ft | 4 kts | 334° |
| 2026-05-06 20:24 | 52.31052 | 4.77728 | 3 ft | 5 kts | 334° |
| 2026-05-06 20:25 | 52.31053 | 4.77727 | 3 ft | 0 kts | 334° |
| 2026-05-06 20:25 | 52.31060 | 4.77722 | 3 ft | 2 kts | 334° |
| 2026-05-06 20:26 | 52.31080 | 4.77706 | 3 ft | 7 kts | 334° |
| 2026-05-06 20:26 | 52.31129 | 4.77666 | 3 ft | 4 kts | 331° |
| 2026-05-06 20:26 | 52.31143 | 4.77629 | 4 ft | 2 kts | 296° |
| 2026-05-06 20:26 | 52.31147 | 4.77612 | 4 ft | 4 kts | 295° |
| 2026-05-06 20:27 | 52.31155 | 4.77584 | 4 ft | 0 kts | 295° |
| 2026-05-06 20:27 | 52.31158 | 4.77575 | 4 ft | 4 kts | 298° |
| 2026-05-06 20:27 | 52.31177 | 4.77549 | 4 ft | 15 kts | 327° |
| 2026-05-06 20:27 | 52.31282 | 4.77401 | 4 ft | 19 kts | 278° |
| 2026-05-06 20:28 | 52.31291 | 4.77199 | 3 ft | 16 kts | 263° |
| 2026-05-06 20:28 | 52.31313 | 4.77048 | 3 ft | 10 kts | 303° |
| 2026-05-06 20:28 | 52.31330 | 4.77009 | 3 ft | 2 kts | 306° |
| 2026-05-06 20:28 | 52.31337 | 4.76993 | 3 ft | 2 kts | 305° |
| 2026-05-06 20:29 | 52.31340 | 4.76986 | 3 ft | 0 kts | 304° |
| 2026-05-06 20:29 | 52.31342 | 4.76982 | 3 ft | 0 kts | 304° |